Time;durP1;ratioP1;P1;durP2;ratioP2;P2;SDS_P1;SDS_P2;PMS_P1;PMS_P2;Temp;Humidity;BMP_temperature;BMP_pressure;BME280_temperature;BME280_humidity;BME280_pressure;Samples;Min_cycle;Max_cycle;Signal;HPM_P1;HPM_P2
2022/12/23 00:00:01;;;;;;;3.67;3.33;;;;;;;9.69;100.00;97453.44;4190013;28;20219;-66
2022/12/23 00:02:02;;;;;;;2.00;1.33;;;;;;;9.82;100.00;97458.38;4198664;28;20249;-67
2022/12/23 00:04:04;;;;;;;2.03;1.27;;;;;;;9.82;100.00;97455.63;4195921;28;20718;-67
2022/12/23 00:06:12;;;;;;;0.70;0.70;;;;;;;9.83;100.00;97449.06;4189581;28;20211;-66
2022/12/23 00:08:13;;;;;;;0.80;0.80;;;;;;;9.85;100.00;97452.34;4198710;28;20281;-67
2022/12/23 00:10:15;;;;;;;0.55;0.55;;;;;;;9.79;100.00;97461.63;4189798;28;20230;-66
2022/12/23 00:15:06;;;;;;;0.60;0.60;;;;;;;10.04;100.00;97467.16;4170407;28;20294;-66
2022/12/23 00:17:10;;;;;;;0.70;0.70;;;;;;;10.01;100.00;97473.16;4190771;28;20256;-66
2022/12/23 00:19:23;;;;;;;0.47;0.47;;;;;;;10.13;100.00;97468.25;4189370;28;20223;-67
2022/12/23 00:21:25;;;;;;;0.57;0.57;;;;;;;10.15;100.00;97477.81;4199791;28;20237;-67
2022/12/23 00:23:27;;;;;;;0.60;0.60;;;;;;;10.21;100.00;97481.41;4200214;28;20631;-66
2022/12/23 00:25:44;;;;;;;0.70;0.70;;;;;;;10.22;100.00;97485.75;4187761;28;20231;-66
2022/12/23 00:28:00;;;;;;;0.55;0.55;;;;;;;10.21;100.00;97489.59;4203914;28;20351;-66
2022/12/23 00:30:02;;;;;;;1.60;0.82;;;;;;;10.23;100.00;97487.41;4202513;28;20207;-66
2022/12/23 00:32:06;;;;;;;1.25;0.80;;;;;;;10.30;100.00;97491.53;4188495;28;20261;-66
2022/12/23 00:34:09;;;;;;;0.70;0.70;;;;;;;10.29;100.00;97491.78;4184035;28;20238;-67
2022/12/23 00:36:12;;;;;;;0.60;0.60;;;;;;;10.36;100.00;97500.53;4203530;28;20208;-66
2022/12/23 00:38:15;;;;;;;0.75;0.75;;;;;;;10.36;100.00;97497.78;4185391;28;20238;-66
2022/12/23 00:42:52;;;;;;;0.60;0.60;;;;;;;10.45;100.00;97496.16;4200303;28;20763;-66
2022/12/23 00:45:14;;;;;;;0.70;0.70;;;;;;;10.43;100.00;97503.81;4199163;28;20223;-66
2022/12/23 00:49:42;;;;;;;0.60;0.60;;;;;;;10.42;100.00;97513.13;4215183;28;20194;-66
2022/12/23 00:51:44;;;;;;;0.73;0.55;;;;;;;10.37;100.00;97521.31;4199698;28;20759;-66
2022/12/23 00:53:46;;;;;;;0.70;0.70;;;;;;;10.44;100.00;97514.47;4196539;28;20210;-66
2022/12/23 00:55:49;;;;;;;0.68;0.68;;;;;;;10.45;100.00;97523.50;4196826;28;20219;-66
2022/12/23 00:57:51;;;;;;;0.50;0.50;;;;;;;10.49;100.00;97527.34;4182829;28;20340;-66
2022/12/23 00:59:52;;;;;;;0.63;0.63;;;;;;;10.51;100.00;97533.34;4199045;28;20207;-66
2022/12/23 01:06:37;;;;;;;1.25;0.70;;;;;;;10.49;100.00;97535.53;4201026;28;20235;-66
2022/12/23 01:08:38;;;;;;;0.63;0.63;;;;;;;10.50;100.00;97546.22;4199847;28;20360;-67
2022/12/23 01:10:40;;;;;;;0.70;0.70;;;;;;;10.52;100.00;97556.84;4199641;28;20659;-67
2022/12/23 01:12:42;;;;;;;0.60;0.60;;;;;;;10.52;100.00;97562.31;4188340;28;20211;-67
2022/12/23 01:14:44;;;;;;;0.63;0.60;;;;;;;10.54;100.00;97560.16;4188676;28;20321;-66
2022/12/23 01:16:46;;;;;;;0.50;0.50;;;;;;;10.56;100.00;97561.50;4213830;28;20199;-67
2022/12/23 01:18:47;;;;;;;0.50;0.50;;;;;;;10.53;100.00;97569.44;4197227;28;20970;-67
2022/12/23 01:20:49;;;;;;;0.50;0.50;;;;;;;10.57;100.00;97565.06;4187267;28;20239;-65
2022/12/23 01:22:51;;;;;;;0.55;0.55;;;;;;;10.54;100.00;97571.09;4199861;28;20214;-66
2022/12/23 01:24:53;;;;;;;0.60;0.60;;;;;;;10.55;100.00;97589.16;4198366;28;20659;-66
2022/12/23 01:26:55;;;;;;;0.55;0.55;;;;;;;10.58;100.00;97583.13;4188750;28;20868;-66
2022/12/23 01:28:57;;;;;;;0.70;0.70;;;;;;;10.55;100.00;97589.16;4199786;28;20723;-67
2022/12/23 01:31:00;;;;;;;0.57;0.57;;;;;;;10.55;100.00;97600.09;4186367;28;20301;-66
2022/12/23 01:33:02;;;;;;;0.75;0.75;;;;;;;10.60;100.00;97598.16;4203260;28;20285;-66
2022/12/23 01:35:04;;;;;;;0.60;0.60;;;;;;;10.61;100.00;97602.53;4182198;28;20743;-66
2022/12/23 01:37:07;;;;;;;0.50;0.50;;;;;;;10.59;100.00;97612.94;4173857;28;20208;-66
2022/12/23 01:39:09;;;;;;;1.35;0.80;;;;;;;10.59;100.00;97617.59;4199789;28;20245;-67
2022/12/23 01:43:50;;;;;;;0.68;0.68;;;;;;;10.64;100.00;97618.44;4204031;27;20214;-67
2022/12/23 01:45:52;;;;;;;1.85;0.60;;;;;;;10.63;100.00;97622.25;4190137;28;20200;-66
2022/12/23 01:47:56;;;;;;;0.70;0.70;;;;;;;10.60;100.00;97616.50;4215263;27;20280;-66
2022/12/23 01:50:10;;;;;;;0.60;0.60;;;;;;;10.65;100.00;97628.28;4207225;28;20733;-66
2022/12/23 01:52:13;;;;;;;0.73;0.73;;;;;;;10.66;100.00;97627.19;4187689;28;20239;-65
2022/12/23 01:54:15;;;;;;;0.70;0.70;;;;;;;10.66;100.00;97635.38;4203838;28;20234;-66
2022/12/23 01:56:25;;;;;;;0.50;0.50;;;;;;;10.65;100.00;97633.75;4199011;28;20682;-65
2022/12/23 01:58:45;;;;;;;0.57;0.57;;;;;;;10.63;100.00;97630.47;4215966;27;20257;-66
2022/12/23 02:05:27;;;;;;;0.93;0.68;;;;;;;10.57;100.00;97636.19;4203054;28;20206;-66
2022/12/23 02:09:50;;;;;;;0.50;0.50;;;;;;;10.58;100.00;97643.31;4206371;28;20515;-66
2022/12/23 02:12:09;;;;;;;0.80;0.80;;;;;;;10.58;100.00;97654.25;4191812;28;20626;-65
2022/12/23 02:17:21;;;;;;;0.57;0.57;;;;;;;10.54;100.00;97661.38;4195275;28;20297;-66
2022/12/23 02:20:02;;;;;;;0.65;0.60;;;;;;;10.49;100.00;97677.75;4208892;28;20269;-67
2022/12/23 02:22:22;;;;;;;0.50;0.50;;;;;;;10.43;100.00;97668.72;4205673;28;20242;-66
2022/12/23 02:24:34;;;;;;;0.60;0.60;;;;;;;10.41;100.00;97681.84;4216315;27;20225;-65
2022/12/23 02:26:41;;;;;;;0.60;0.60;;;;;;;10.48;100.00;97687.06;4206260;28;20199;-66
2022/12/23 02:29:11;;;;;;;0.68;0.68;;;;;;;10.43;100.00;97678.84;4205161;28;20230;-66
2022/12/23 02:31:24;;;;;;;0.65;0.65;;;;;;;10.40;100.00;97690.28;4219279;28;20215;-65
2022/12/23 02:33:35;;;;;;;0.82;0.52;;;;;;;10.42;100.00;97690.88;4188666;28;20239;-66
2022/12/23 02:36:03;;;;;;;0.60;0.60;;;;;;;10.40;100.00;97695.75;4205338;28;20317;-65
2022/12/23 02:38:41;;;;;;;2.40;0.65;;;;;;;10.33;100.00;97706.97;4200497;28;20318;-65
2022/12/23 02:41:13;;;;;;;0.55;0.55;;;;;;;10.36;100.00;97706.41;4206800;27;20301;-66
2022/12/23 02:43:24;;;;;;;0.60;0.60;;;;;;;10.33;100.00;97703.41;4213833;27;20305;-66
2022/12/23 02:45:40;;;;;;;0.63;0.60;;;;;;;10.34;100.00;97710.53;4205585;28;20235;-66
2022/12/23 02:48:04;;;;;;;0.57;0.57;;;;;;;10.33;100.00;97706.97;4200778;28;20218;-65
2022/12/23 02:50:13;;;;;;;0.52;0.50;;;;;;;10.32;100.00;97721.72;4186723;28;20298;-66
2022/12/23 02:52:17;;;;;;;0.60;0.60;;;;;;;10.38;100.00;97719.84;4215628;27;20694;-66
2022/12/23 02:54:26;;;;;;;1.77;0.90;;;;;;;10.32;100.00;97729.94;4201843;28;20227;-65
2022/12/23 02:56:31;;;;;;;0.65;0.65;;;;;;;10.30;100.00;97728.56;4183013;28;20672;-66
2022/12/23 02:58:41;;;;;;;1.35;0.60;;;;;;;10.28;100.00;97733.47;4190635;28;20229;-66
2022/12/23 03:00:43;;;;;;;0.70;0.70;;;;;;;10.30;100.00;97729.41;4191153;28;20804;-66
2022/12/23 03:02:45;;;;;;;0.50;0.50;;;;;;;10.29;100.00;97732.38;4201074;28;20297;-65
2022/12/23 03:04:47;;;;;;;0.60;0.60;;;;;;;10.28;100.00;97733.47;4201041;28;20227;-65
2022/12/23 03:06:51;;;;;;;0.70;0.70;;;;;;;10.32;100.00;97731.84;4216703;27;20295;-66
2022/12/23 03:08:55;;;;;;;0.45;0.45;;;;;;;10.29;100.00;97738.66;4202711;28;20263;-65
2022/12/23 03:11:14;;;;;;;2.53;0.52;;;;;;;10.29;100.00;97740.59;4188256;28;20233;-65
2022/12/23 03:13:19;;;;;;;0.60;0.60;;;;;;;10.26;100.00;97735.63;4199501;28;20533;-65
2022/12/23 03:15:26;;;;;;;0.57;0.57;;;;;;;10.29;100.00;97737.84;4218404;27;20241;-65
2022/12/23 03:17:59;;;;;;;0.88;0.85;;;;;;;10.28;100.00;97736.22;4220029;28;20205;-66
2022/12/23 03:20:10;;;;;;;0.60;0.60;;;;;;;10.21;100.00;97746.56;4201486;28;20651;-65
2022/12/23 03:22:33;;;;;;;0.50;0.50;;;;;;;10.21;100.00;97749.31;4205716;28;20210;-65
2022/12/23 03:24:43;;;;;;;0.40;0.40;;;;;;;10.24;100.00;97746.03;4206119;28;20226;-65
2022/12/23 03:26:51;;;;;;;1.55;0.50;;;;;;;10.31;100.00;97741.13;4200055;28;20765;-65
2022/12/23 03:29:00;;;;;;;0.60;0.60;;;;;;;10.27;100.00;97750.97;4190344;28;20230;-65
2022/12/23 03:31:03;;;;;;;0.60;0.60;;;;;;;10.28;100.00;97739.75;4184326;28;20235;-65
2022/12/23 03:33:18;;;;;;;0.50;0.50;;;;;;;10.29;100.00;97743.31;4185369;28;20602;-65
2022/12/23 03:35:26;;;;;;;0.60;0.60;;;;;;;10.28;100.00;97744.41;4195204;28;20237;-65
2022/12/23 03:37:31;;;;;;;0.60;0.60;;;;;;;10.20;100.00;97740.28;4187282;28;20242;-65
2022/12/23 03:39:58;;;;;;;0.63;0.63;;;;;;;10.20;100.00;97745.75;4201638;28;20233;-66
2022/12/23 03:42:10;;;;;;;0.50;0.50;;;;;;;10.23;100.00;97755.31;4203747;28;20627;-65
2022/12/23 03:44:22;;;;;;;0.50;0.50;;;;;;;10.16;100.00;97754.75;4188685;28;20239;-65
2022/12/23 03:46:33;;;;;;;0.57;0.57;;;;;;;10.21;100.00;97754.78;4187160;28;20212;-65
2022/12/23 03:48:39;;;;;;;0.55;0.55;;;;;;;10.16;100.00;97755.53;4186725;28;20713;-65
2022/12/23 03:50:41;;;;;;;0.60;0.60;;;;;;;10.16;100.00;97749.28;4188948;28;20207;-65
2022/12/23 03:52:51;;;;;;;2.25;0.50;;;;;;;10.22;100.00;97754.50;4188747;28;20199;-65
2022/12/23 03:54:54;;;;;;;0.55;0.55;;;;;;;10.17;100.00;97759.13;4190524;28;20226;-65
2022/12/23 03:57:01;;;;;;;0.55;0.55;;;;;;;10.14;100.00;97754.19;4186140;28;20216;-65
2022/12/23 03:59:20;;;;;;;1.55;0.70;;;;;;;10.17;100.00;97751.75;4186402;28;20235;-65
2022/12/23 04:01:46;;;;;;;0.55;0.55;;;;;;;10.10;100.00;97747.59;4200244;28;20240;-65
2022/12/23 04:04:00;;;;;;;0.82;0.82;;;;;;;10.14;100.00;97746.00;4201463;28;20293;-65
2022/12/23 04:06:04;;;;;;;1.30;0.70;;;;;;;10.16;100.00;97752.00;4188702;28;20715;-65
2022/12/23 04:08:16;;;;;;;0.60;0.60;;;;;;;10.14;100.00;97756.94;4190185;28;20657;-65
2022/12/23 04:10:20;;;;;;;0.52;0.52;;;;;;;10.08;100.00;97758.00;4199277;28;20214;-65
2022/12/23 04:12:23;;;;;;;1.88;0.88;;;;;;;10.20;100.00;97769.50;4189689;28;20227;-65
2022/12/23 04:14:25;;;;;;;0.50;0.50;;;;;;;10.15;100.00;97769.50;4205777;28;20234;-66
2022/12/23 04:16:28;;;;;;;0.40;0.40;;;;;;;10.15;100.00;97769.50;4189388;28;20690;-65
2022/12/23 04:18:30;;;;;;;0.40;0.40;;;;;;;10.14;100.00;97770.59;4197625;28;20288;-65
2022/12/23 04:20:32;;;;;;;0.55;0.50;;;;;;;10.12;100.00;97775.50;4201548;28;20578;-65
2022/12/23 04:22:33;;;;;;;0.68;0.60;;;;;;;10.20;100.00;97769.50;4188380;28;20689;-65
2022/12/23 04:24:35;;;;;;;0.50;0.50;;;;;;;10.18;100.00;97774.44;4216785;27;20222;-65
2022/12/23 04:26:37;;;;;;;0.55;0.55;;;;;;;10.25;100.00;97775.00;4199573;28;20712;-65
2022/12/23 04:28:39;;;;;;;0.57;0.57;;;;;;;10.17;100.00;97781.00;4199192;28;20226;-65
2022/12/23 04:30:40;;;;;;;0.60;0.60;;;;;;;10.17;100.00;97781.00;4198516;28;20259;-65
2022/12/23 04:32:42;;;;;;;2.33;0.80;;;;;;;10.11;100.00;97791.09;4196756;28;20273;-65
2022/12/23 04:34:44;;;;;;;0.50;0.50;;;;;;;10.15;100.00;97788.66;4199275;28;20647;-65
2022/12/23 04:36:45;;;;;;;0.60;0.60;;;;;;;10.16;100.00;97782.88;4197394;28;20226;-65
2022/12/23 04:38:47;;;;;;;0.70;0.70;;;;;;;10.17;100.00;97775.53;4216758;27;20236;-65
2022/12/23 04:40:49;;;;;;;0.40;0.40;;;;;;;10.12;100.00;97775.50;4198668;28;20230;-65
2022/12/23 04:42:53;;;;;;;0.65;0.65;;;;;;;10.16;100.00;97788.34;4197808;28;20206;-65
2022/12/23 04:44:55;;;;;;;1.00;0.65;;;;;;;10.16;100.00;97784.81;4200034;28;20262;-65
2022/12/23 04:46:57;;;;;;;0.60;0.60;;;;;;;10.14;100.00;97781.53;4200887;28;20210;-65
2022/12/23 04:48:59;;;;;;;0.50;0.50;;;;;;;10.14;100.00;97778.81;4182265;28;20319;-66
2022/12/23 04:51:01;;;;;;;0.50;0.50;;;;;;;10.14;100.00;97773.34;4199213;28;20237;-66
2022/12/23 04:53:03;;;;;;;0.60;0.60;;;;;;;10.12;100.00;97776.31;4185356;28;20216;-66
2022/12/23 04:55:06;;;;;;;0.60;0.60;;;;;;;10.11;100.00;97765.66;4200032;28;20202;-65
2022/12/23 04:57:07;;;;;;;0.55;0.55;;;;;;;10.13;100.00;97771.66;4181864;28;20306;-66
2022/12/23 04:59:09;;;;;;;0.85;0.85;;;;;;;10.13;100.00;97760.72;4204866;28;20260;-65
2022/12/23 05:01:11;;;;;;;0.77;0.77;;;;;;;10.11;100.00;97762.91;4187180;28;20214;-65
2022/12/23 05:03:13;;;;;;;0.90;0.90;;;;;;;10.15;100.00;97758.56;4188294;28;20233;-65
2022/12/23 05:05:16;;;;;;;1.10;1.10;;;;;;;10.16;100.00;97754.75;4189547;28;20254;-65
2022/12/23 05:07:17;;;;;;;0.77;0.77;;;;;;;10.21;100.00;97763.78;4193135;28;20246;-65
2022/12/23 05:09:19;;;;;;;0.73;0.73;;;;;;;10.21;100.00;97768.44;4201426;28;20231;-65
2022/12/23 05:11:21;;;;;;;0.63;0.63;;;;;;;10.23;100.00;97774.47;4190564;28;20242;-66
2022/12/23 05:13:23;;;;;;;0.70;0.70;;;;;;;10.20;100.00;97781.28;4202379;28;20218;-66
2022/12/23 05:15:24;;;;;;;0.60;0.60;;;;;;;10.17;100.00;97783.72;4201872;28;20245;-66
2022/12/23 05:17:26;;;;;;;0.90;0.90;;;;;;;10.21;100.00;97780.19;4201907;28;20413;-66
2022/12/23 05:19:28;;;;;;;0.80;0.80;;;;;;;10.20;100.00;97780.44;4194017;28;20264;-66
2022/12/23 05:21:30;;;;;;;0.70;0.70;;;;;;;10.13;100.00;97788.06;4217145;27;20239;-66
2022/12/23 05:23:31;;;;;;;0.65;0.65;;;;;;;10.09;100.00;97786.97;4207783;28;20752;-66
2022/12/23 05:25:36;;;;;;;0.60;0.60;;;;;;;10.12;100.00;97791.88;4190778;28;20264;-66
2022/12/23 05:27:41;;;;;;;0.70;0.70;;;;;;;10.07;100.00;97800.88;4191936;28;20301;-66
2022/12/23 05:29:43;;;;;;;0.80;0.80;;;;;;;10.05;100.00;97796.75;4190417;28;20242;-66
2022/12/23 05:31:45;;;;;;;0.80;0.80;;;;;;;10.11;100.00;97795.72;4218692;27;20322;-66
2022/12/23 05:33:47;;;;;;;0.77;0.77;;;;;;;10.04;100.00;97795.13;4201308;28;20217;-66
2022/12/23 05:35:49;;;;;;;0.60;0.60;;;;;;;10.09;100.00;97792.44;4191664;28;20207;-66
2022/12/23 05:37:52;;;;;;;1.70;1.60;;;;;;;10.09;100.00;97790.50;4184954;28;20281;-66
2022/12/23 05:39:53;;;;;;;0.60;0.60;;;;;;;10.13;100.00;97791.63;4189067;28;20215;-66
2022/12/23 05:41:55;;;;;;;0.63;0.63;;;;;;;10.09;100.00;97803.38;4191060;28;20258;-66
2022/12/23 05:43:57;;;;;;;0.60;0.60;;;;;;;10.12;100.00;97789.16;4187286;28;20238;-66
2022/12/23 05:45:59;;;;;;;0.95;0.85;;;;;;;10.12;100.00;97783.69;4193457;28;20895;-66
2022/12/23 05:48:00;;;;;;;0.60;0.60;;;;;;;10.13;100.00;97788.91;4195040;28;20578;-66
2022/12/23 05:50:03;;;;;;;0.65;0.65;;;;;;;10.15;100.00;97792.19;4202615;28;20223;-66
2022/12/23 05:52:05;;;;;;;0.70;0.70;;;;;;;10.13;100.00;97790.78;4187956;28;20339;-66
2022/12/23 05:54:06;;;;;;;0.90;0.70;;;;;;;10.11;100.00;97787.50;4190331;28;20282;-65
2022/12/23 05:56:08;;;;;;;0.98;0.98;;;;;;;10.12;100.00;97780.94;4185852;28;20351;-66
2022/12/23 05:58:10;;;;;;;0.80;0.80;;;;;;;10.13;100.00;97788.91;4200079;28;20956;-66
2022/12/23 06:00:13;;;;;;;0.82;0.82;;;;;;;10.21;100.00;97784.84;4188674;28;20207;-66
2022/12/23 06:02:14;;;;;;;0.60;0.60;;;;;;;10.22;100.00;97791.97;4201179;28;20211;-66
2022/12/23 06:04:16;;;;;;;0.90;0.90;;;;;;;10.17;100.00;97789.19;4202165;28;20288;-66
2022/12/23 06:06:18;;;;;;;1.63;0.80;;;;;;;10.18;100.00;97801.75;4188904;28;20233;-65
2022/12/23 06:08:20;;;;;;;1.08;1.08;;;;;;;10.21;100.00;97798.53;4201161;28;20254;-66
2022/12/23 06:10:22;;;;;;;0.80;0.80;;;;;;;10.22;100.00;97800.97;4191825;28;20280;-66
2022/12/23 06:12:24;;;;;;;0.88;0.88;;;;;;;10.17;100.00;97800.97;4202802;28;21095;-66
2022/12/23 06:14:25;;;;;;;1.48;1.00;;;;;;;10.21;100.00;97795.78;4191206;28;20572;-66
2022/12/23 06:16:30;;;;;;;0.70;0.70;;;;;;;10.24;100.00;97806.19;4192579;28;20199;-66
2022/12/23 06:18:31;;;;;;;0.80;0.80;;;;;;;10.23;100.00;97804.53;4189003;28;20281;-66
2022/12/23 06:20:33;;;;;;;3.30;0.98;;;;;;;10.23;100.00;97799.06;4202897;28;20206;-66
2022/12/23 06:22:35;;;;;;;1.00;0.95;;;;;;;10.20;100.00;97799.59;4188691;28;20214;-66
2022/12/23 06:24:37;;;;;;;0.70;0.70;;;;;;;10.21;100.00;97790.31;4202825;28;20239;-66
2022/12/23 06:26:38;;;;;;;0.70;0.70;;;;;;;10.15;100.00;97794.09;4190306;28;20231;-66
2022/12/23 06:28:40;;;;;;;0.60;0.60;;;;;;;10.10;100.00;97799.53;4200495;28;20605;-66
2022/12/23 06:30:42;;;;;;;1.10;0.70;;;;;;;10.05;100.00;97802.22;4191038;28;20286;-66
2022/12/23 06:32:44;;;;;;;0.60;0.60;;;;;;;10.00;100.00;97811.19;4189177;28;20207;-66
2022/12/23 06:34:52;;;;;;;0.60;0.60;;;;;;;10.00;100.00;97813.94;4188099;28;20211;-66
2022/12/23 06:36:53;;;;;;;0.73;0.73;;;;;;;9.95;100.00;97813.09;4189071;28;20582;-66
2022/12/23 06:38:55;;;;;;;0.90;0.90;;;;;;;9.94;100.00;97812.25;4201391;28;20233;-66
2022/12/23 06:40:57;;;;;;;0.70;0.70;;;;;;;9.91;100.00;97812.78;4188549;28;20200;-66
2022/12/23 06:42:59;;;;;;;0.80;0.80;;;;;;;9.92;100.00;97819.91;4189720;28;20210;-66
2022/12/23 06:45:00;;;;;;;0.93;0.80;;;;;;;9.93;100.00;97823.44;4191409;28;20294;-66
2022/12/23 06:47:02;;;;;;;0.70;0.70;;;;;;;9.88;100.00;97828.88;4202777;28;20298;-66
2022/12/23 06:49:04;;;;;;;0.70;0.70;;;;;;;9.81;100.00;97825.56;4202609;28;20278;-65
2022/12/23 06:51:13;;;;;;;0.70;0.70;;;;;;;9.85;100.00;97821.19;4219058;27;20205;-66
2022/12/23 06:53:15;;;;;;;2.20;0.85;;;;;;;9.90;100.00;97815.78;4199970;28;20241;-66
2022/12/23 06:55:17;;;;;;;1.60;1.02;;;;;;;9.88;100.00;97812.50;4216175;28;20233;-66
2022/12/23 06:57:19;;;;;;;0.93;0.93;;;;;;;9.87;100.00;97819.03;4202286;28;20246;-66
2022/12/23 06:59:20;;;;;;;0.57;0.52;;;;;;;9.91;100.00;97817.41;4197833;28;20301;-66
2022/12/23 07:01:22;;;;;;;5.70;0.63;;;;;;;9.92;100.00;97810.84;4199963;28;20210;-66
2022/12/23 07:03:24;;;;;;;0.80;0.80;;;;;;;9.90;100.00;97808.41;4200733;28;22328;-66
2022/12/23 07:05:26;;;;;;;1.02;1.00;;;;;;;9.97;100.00;97805.44;4218932;28;20230;-66
2022/12/23 07:07:37;;;;;;;0.70;0.70;;;;;;;9.91;100.00;97806.50;4198143;28;20205;-66
2022/12/23 07:09:38;;;;;;;0.60;0.60;;;;;;;9.93;100.00;97804.31;4184566;28;20246;-66
2022/12/23 07:11:40;;;;;;;4.00;0.70;;;;;;;9.92;100.00;97802.66;4185676;28;20723;-66
2022/12/23 07:13:42;;;;;;;0.75;0.75;;;;;;;9.94;100.00;97795.03;4203549;28;20202;-66
2022/12/23 07:15:55;;;;;;;0.70;0.70;;;;;;;9.95;100.00;97797.50;4198901;28;20243;-66
2022/12/23 07:18:10;;;;;;;0.73;0.50;;;;;;;10.02;100.00;97802.75;4187801;28;20231;-66
2022/12/23 07:20:13;;;;;;;0.50;0.50;;;;;;;10.09;100.00;97803.38;4203801;28;20294;-66
2022/12/23 07:22:14;;;;;;;0.57;0.57;;;;;;;10.04;100.00;97795.97;4191214;28;20214;-66
2022/12/23 07:24:16;;;;;;;0.77;0.77;;;;;;;10.05;100.00;97802.22;4219829;27;20252;-66
2022/12/23 07:26:18;;;;;;;0.60;0.60;;;;;;;10.03;100.00;97810.69;4186888;28;20226;-66
2022/12/23 07:28:20;;;;;;;1.08;0.68;;;;;;;10.04;100.00;97822.47;4186243;28;20256;-66
2022/12/23 07:30:23;;;;;;;0.65;0.65;;;;;;;10.07;100.00;97821.94;4184559;28;20208;-66
2022/12/23 07:32:24;;;;;;;0.70;0.70;;;;;;;10.11;100.00;97828.50;4201861;28;20249;-66
2022/12/23 07:34:26;;;;;;;0.80;0.80;;;;;;;10.14;100.00;97834.28;4199473;28;20245;-66
2022/12/23 07:36:28;;;;;;;0.80;0.80;;;;;;;10.07;100.00;97833.69;4199631;28;20294;-66
2022/12/23 07:38:29;;;;;;;0.80;0.80;;;;;;;10.08;100.00;97840.00;4206980;28;20223;-66
2022/12/23 07:40:31;;;;;;;0.60;0.60;;;;;;;10.13;100.00;97840.84;4188691;28;20207;-66
2022/12/23 07:42:33;;;;;;;0.60;0.60;;;;;;;10.07;100.00;97844.63;4185594;28;20208;-66
2022/12/23 07:44:46;;;;;;;0.65;0.65;;;;;;;10.04;100.00;97838.84;4189643;28;20246;-66
2022/12/23 07:46:48;;;;;;;0.82;0.70;;;;;;;10.11;100.00;97840.28;4191243;28;20285;-66
2022/12/23 07:48:50;;;;;;;0.77;0.77;;;;;;;10.09;100.00;97847.91;4200713;28;20717;-66
2022/12/23 07:50:51;;;;;;;0.80;0.80;;;;;;;10.12;100.00;97838.34;4189785;28;20310;-65
2022/12/23 07:52:53;;;;;;;0.50;0.50;;;;;;;10.14;100.00;97833.47;4198647;28;20230;-66
2022/12/23 07:54:55;;;;;;;0.80;0.80;;;;;;;10.23;100.00;97837.34;4190568;28;20298;-66
2022/12/23 07:56:57;;;;;;;0.80;0.80;;;;;;;10.18;100.00;97834.56;4186932;28;20206;-66
2022/12/23 07:58:59;;;;;;;0.82;0.82;;;;;;;10.21;100.00;97828.59;4188139;28;20239;-66
2022/12/23 08:01:02;;;;;;;0.80;0.80;;;;;;;10.22;100.00;97825.56;4199585;28;20234;-66
2022/12/23 08:03:04;;;;;;;1.25;1.00;;;;;;;10.18;100.00;97820.91;4181214;28;20215;-66
2022/12/23 08:05:07;;;;;;;0.90;0.90;;;;;;;10.19;100.00;97819.81;4201279;28;20594;-66
2022/12/23 08:07:09;;;;;;;1.13;1.02;;;;;;;10.21;100.00;97806.72;4196516;28;20821;-66
2022/12/23 08:09:10;;;;;;;1.30;1.20;;;;;;;10.15;100.00;97800.38;4200827;28;20227;-66
2022/12/23 08:11:13;;;;;;;1.55;1.02;;;;;;;10.19;100.00;97808.88;4186094;28;20609;-65
2022/12/23 08:13:15;;;;;;;0.98;0.98;;;;;;;10.19;100.00;97809.72;4196371;28;20252;-66
2022/12/23 08:15:17;;;;;;;0.80;0.80;;;;;;;10.20;100.00;97810.53;4187546;28;20290;-66
2022/12/23 08:17:22;;;;;;;0.80;0.80;;;;;;;10.22;100.00;97813.84;4190639;28;20655;-66
2022/12/23 08:19:24;;;;;;;1.10;1.10;;;;;;;10.22;100.00;97819.28;4186964;28;20413;-66
2022/12/23 08:21:25;;;;;;;0.95;0.85;;;;;;;10.19;100.00;97808.88;4199734;28;20938;-66
2022/12/23 08:23:28;;;;;;;3.63;3.33;;;;;;;10.27;100.00;97802.94;4181620;28;20231;-66
2022/12/23 08:25:30;;;;;;;1.50;1.40;;;;;;;10.36;100.00;97798.59;4190244;28;20270;-66
2022/12/23 08:27:32;;;;;;;1.42;1.25;;;;;;;10.25;100.00;97802.34;4196460;28;20206;-66
2022/12/23 08:29:33;;;;;;;1.25;1.17;;;;;;;10.37;100.00;97805.69;4182061;28;20216;-66
2022/12/23 08:31:37;;;;;;;0.90;0.90;;;;;;;10.35;100.00;97807.88;4185193;28;20194;-66
2022/12/23 08:33:40;;;;;;;1.00;0.90;;;;;;;10.28;100.00;97797.16;4187905;28;20222;-66
2022/12/23 08:35:42;;;;;;;0.60;0.60;;;;;;;10.45;100.00;97803.28;4199175;28;20199;-66
2022/12/23 08:37:44;;;;;;;1.00;0.75;;;;;;;10.39;100.00;97814.44;4198483;28;20203;-66
2022/12/23 08:39:46;;;;;;;0.65;0.65;;;;;;;10.40;100.00;97810.63;4196914;28;20690;-66
2022/12/23 08:41:48;;;;;;;0.50;0.50;;;;;;;10.37;100.00;97814.75;4198015;28;20211;-58
2022/12/23 08:43:56;;;;;;;1.20;0.82;;;;;;;10.44;100.00;97818.06;4214710;28;20210;-60
2022/12/23 08:46:16;;;;;;;0.80;0.80;;;;;;;10.54;100.00;97822.75;4214163;28;20726;-47
2022/12/23 08:48:18;;;;;;;1.55;0.90;;;;;;;10.51;100.00;97824.09;4199560;28;20223;-46
2022/12/23 08:50:20;;;;;;;1.17;1.10;;;;;;;10.49;100.00;97831.72;4213715;28;20331;-47
2022/12/23 08:52:23;;;;;;;0.80;0.80;;;;;;;10.53;100.00;97826.56;4200510;28;20210;-46
2022/12/23 08:54:27;;;;;;;1.30;1.00;;;;;;;10.54;100.00;97822.75;4197543;28;20215;-45
2022/12/23 08:56:31;;;;;;;0.90;0.90;;;;;;;10.52;100.00;97819.44;4215658;28;20202;-46
2022/12/23 08:58:41;;;;;;;0.98;0.93;;;;;;;10.51;100.00;97813.16;4217780;28;20239;-45
2022/12/23 09:00:43;;;;;;;1.27;1.00;;;;;;;10.54;100.00;97820.03;4216639;28;20229;-46
2022/12/23 09:02:44;;;;;;;0.73;0.68;;;;;;;10.54;100.00;97829.03;4199478;28;20237;-46
2022/12/23 09:04:46;;;;;;;0.90;0.90;;;;;;;10.59;100.00;97831.78;4201494;28;20376;-48
2022/12/23 09:06:48;;;;;;;0.80;0.80;;;;;;;10.62;100.00;97825.78;4218455;28;20302;-46
2022/12/23 09:08:50;;;;;;;1.00;1.00;;;;;;;10.61;100.00;97821.41;4197701;28;20879;-46
2022/12/23 09:10:52;;;;;;;2.45;1.00;;;;;;;10.65;100.00;97827.16;4203329;28;20206;-45
2022/12/23 09:12:54;;;;;;;0.85;0.80;;;;;;;10.71;100.00;97824.19;4214709;28;20264;-45
2022/12/23 09:14:58;;;;;;;0.82;0.82;;;;;;;10.69;100.00;97820.06;4199409;28;20613;-45
2022/12/23 09:17:00;;;;;;;1.02;0.93;;;;;;;10.72;100.00;97816.78;4199755;28;20284;-46
2022/12/23 09:19:03;;;;;;;0.60;0.60;;;;;;;10.69;100.00;97822.81;4199476;28;20861;-45
2022/12/23 09:21:07;;;;;;;0.82;0.82;;;;;;;10.66;100.00;97817.84;4216474;28;20229;-45
2022/12/23 09:23:09;;;;;;;1.10;1.00;;;;;;;10.69;100.00;97814.59;4199812;28;20661;-46
2022/12/23 09:25:10;;;;;;;3.78;0.88;;;;;;;10.62;100.00;97817.56;4204710;28;20218;-47
2022/12/23 09:27:12;;;;;;;0.90;0.90;;;;;;;10.59;100.00;97822.75;4199136;28;20235;-44
2022/12/23 09:29:14;;;;;;;0.80;0.80;;;;;;;10.64;100.00;97820.03;4196956;28;21093;-45
2022/12/23 09:31:16;;;;;;;0.70;0.70;;;;;;;10.66;100.00;97826.06;4199461;28;20218;-46
2022/12/23 09:33:18;;;;;;;0.82;0.82;;;;;;;10.74;100.00;97822.84;4201553;28;20203;-46
2022/12/23 09:35:20;;;;;;;0.90;0.90;;;;;;;10.71;100.00;97813.25;4204462;28;20289;-46
2022/12/23 09:37:22;;;;;;;1.17;1.05;;;;;;;10.65;100.00;97813.47;4200750;28;20235;-46
2022/12/23 09:39:24;;;;;;;2.55;2.35;;;;;;;10.72;100.00;97823.09;4203364;28;20895;-47
2022/12/23 09:41:47;;;;;;;1.73;1.63;;;;;;;10.70;100.00;97813.50;4197712;28;20215;-46
2022/12/23 09:43:57;;;;;;;1.10;1.00;;;;;;;10.68;100.00;97818.44;4202862;28;20266;-47
2022/12/23 09:46:15;;;;;;;1.00;1.00;;;;;;;10.70;100.00;97810.78;4216282;28;20670;-45
2022/12/23 09:48:20;;;;;;;1.33;1.23;;;;;;;10.66;100.00;97799.53;4199750;28;21135;-45
2022/12/23 09:50:28;;;;;;;0.95;0.95;;;;;;;10.73;100.00;97799.28;4214144;28;20209;-45
2022/12/23 09:52:33;;;;;;;0.70;0.70;;;;;;;10.70;100.00;97788.88;4202413;28;20246;-45
2022/12/23 09:54:45;;;;;;;1.23;1.13;;;;;;;10.72;100.00;97782.06;4219230;27;20230;-45
2022/12/23 09:57:03;;;;;;;0.82;0.82;;;;;;;10.73;100.00;97783.69;4206573;28;20234;-46
2022/12/23 09:59:13;;;;;;;0.90;0.90;;;;;;;10.71;100.00;97782.31;4198764;28;21018;-46
2022/12/23 10:01:30;;;;;;;0.70;0.70;;;;;;;10.69;100.00;97781.78;4209832;28;20230;-45
2022/12/23 10:04:10;;;;;;;0.80;0.80;;;;;;;10.55;100.00;97775.16;4200361;28;20206;-45
2022/12/23 10:06:19;;;;;;;0.60;0.60;;;;;;;10.55;100.00;97770.50;4207011;28;20761;-48
2022/12/23 10:08:37;;;;;;;1.00;1.00;;;;;;;10.62;100.00;97773.00;4192639;28;20730;-47